Portland, Oregon
Current Conditions -  °F | °C
As of 9:53 PM on Wednesday 22 Oct 2014 (Local Time) from KPDX Reporting Station
Broken Clouds Broken Clouds  
Wind Chill: 56°   Ceiling: 7000
Heat Index: 56°   Visibility: 10mi
Dew Point: 53°   Wind: 7mph
Humidity: 90%   Direction: 150°SSE
Pressure: 29.76"   Gusts: NA
Location:  45.51°N, 122.67°W
Report Text: KPDX 230453Z 15006KT 10SM SCT018 BKN070 BKN110 13/12 A2976 RMK AO2 RAB02E42 SLP076 P0003 T01330117
Loading
Personal Weather Stations






























Interactive Weather Map
Tropical Storm Tracking
New forecast layout! Learn more

10-Day Weather Forecast

Advertisements
Track Severe Weather on mobile